createdAt,value
2022-11-27T00:10:23.603Z,0.70
2022-11-27T00:12:53.206Z,0.60
2022-11-27T00:15:22.731Z,0.50
2022-11-27T00:17:53.083Z,1.00
2022-11-27T00:20:26.080Z,0.63
2022-11-27T00:23:00.768Z,1.30
2022-11-27T00:25:33.448Z,0.80
2022-11-27T00:28:03.048Z,1.50
2022-11-27T00:30:34.399Z,0.70
2022-11-27T00:33:04.022Z,0.73
2022-11-27T00:35:33.248Z,0.90
2022-11-27T00:38:02.574Z,0.77
2022-11-27T00:40:33.382Z,0.70
2022-11-27T00:43:02.558Z,0.85
2022-11-27T00:45:32.686Z,0.45
2022-11-27T00:48:01.622Z,0.65
2022-11-27T00:50:32.216Z,1.70
2022-11-27T00:53:01.659Z,0.50
2022-11-27T00:55:32.690Z,1.17
2022-11-27T00:58:03.436Z,0.50
2022-11-27T01:00:32.774Z,1.00
2022-11-27T01:03:02.057Z,0.60
2022-11-27T01:05:34.477Z,0.38
2022-11-27T01:08:04.578Z,0.60
2022-11-27T01:10:34.246Z,0.70
2022-11-27T01:13:04.966Z,1.00
2022-11-27T01:15:36.306Z,0.43
2022-11-27T01:18:11.132Z,1.52
2022-11-27T01:20:41.075Z,0.40
2022-11-27T01:23:10.211Z,0.65
2022-11-27T01:25:39.464Z,1.15
2022-11-27T01:28:10.338Z,0.50
2022-11-27T01:30:41.405Z,0.98
2022-11-27T01:33:10.891Z,0.60
2022-11-27T01:35:42.379Z,0.55
2022-11-27T01:38:11.831Z,0.50
2022-11-27T01:40:47.566Z,1.80
2022-11-27T01:43:18.187Z,0.57
2022-11-27T01:45:47.186Z,0.57
2022-11-27T01:48:16.607Z,0.60
2022-11-27T01:50:45.727Z,0.75
2022-11-27T01:53:16.211Z,0.55
2022-11-27T01:55:48.563Z,0.70
2022-11-27T01:58:21.667Z,0.85
2022-11-27T02:00:50.787Z,0.75
2022-11-27T02:03:20.030Z,0.77
2022-11-27T02:05:49.483Z,0.55
2022-11-27T02:08:19.556Z,0.60
2022-11-27T02:10:50.300Z,1.00
2022-11-27T02:13:25.289Z,1.38
2022-11-27T02:15:58.055Z,0.77
2022-11-27T02:18:29.456Z,0.73
2022-11-27T02:21:04.158Z,0.82
2022-11-27T02:23:57.012Z,1.10
2022-11-27T02:26:36.472Z,0.90
2022-11-27T02:29:08.169Z,0.50
2022-11-27T02:31:40.454Z,0.63
2022-11-27T02:34:13.362Z,1.08
2022-11-27T02:36:44.908Z,1.00
2022-11-27T02:39:16.653Z,1.23
2022-11-27T02:41:48.824Z,0.68
2022-11-27T02:46:52.004Z,0.52
2022-11-27T02:49:25.865Z,0.50
2022-11-27T02:51:57.571Z,0.75
2022-11-27T02:54:28.822Z,0.45
2022-11-27T02:56:59.302Z,0.80
2022-11-27T02:59:30.500Z,0.70
2022-11-27T03:02:02.760Z,0.67
2022-11-27T03:04:35.364Z,0.50
2022-11-27T03:07:06.999Z,0.63
2022-11-27T03:09:37.639Z,0.40
2022-11-27T03:12:08.415Z,0.50
2022-11-27T03:14:43.106Z,0.40
2022-11-27T03:17:22.098Z,0.75
2022-11-27T03:19:53.796Z,1.05
2022-11-27T03:22:23.417Z,0.50
2022-11-27T03:24:53.162Z,0.43
2022-11-27T03:27:28.907Z,0.60
2022-11-27T03:29:59.772Z,0.30
2022-11-27T03:32:30.907Z,0.50
2022-11-27T03:34:59.939Z,0.57
2022-11-27T03:37:32.017Z,0.40
2022-11-27T03:42:32.347Z,0.73
2022-11-27T03:45:06.544Z,0.30
2022-11-27T03:47:47.269Z,0.35
2022-11-27T03:50:21.828Z,0.40
2022-11-27T03:52:54.689Z,0.40
2022-11-27T03:55:26.370Z,0.30
2022-11-27T03:57:57.929Z,0.57
2022-11-27T04:00:30.077Z,0.35
2022-11-27T04:03:00.816Z,0.25
2022-11-27T04:05:33.819Z,0.55
2022-11-27T04:08:05.375Z,0.52
2022-11-27T04:10:34.892Z,0.45
2022-11-27T04:13:04.151Z,0.60
2022-11-27T04:15:33.431Z,0.43
2022-11-27T04:18:06.117Z,0.75
2022-11-27T04:20:35.418Z,0.30
2022-11-27T04:23:04.608Z,0.40
2022-11-27T04:25:34.104Z,0.40
2022-11-27T04:28:03.635Z,0.40
2022-11-27T04:30:33.117Z,0.30
2022-11-27T04:33:02.299Z,0.40
2022-11-27T04:35:32.736Z,0.40
2022-11-27T04:38:03.159Z,0.50
2022-11-27T04:40:32.612Z,0.40
2022-11-27T04:43:01.823Z,0.30
2022-11-27T04:45:31.075Z,0.20
2022-11-27T04:48:00.267Z,0.40
2022-11-27T04:50:29.459Z,0.55
2022-11-27T04:53:01.257Z,0.30
2022-11-27T04:55:30.439Z,0.40
2022-11-27T04:58:00.754Z,0.30
2022-11-27T05:00:29.851Z,0.40
2022-11-27T05:03:01.175Z,0.20
2022-11-27T05:05:30.627Z,0.40
2022-11-27T05:08:01.362Z,0.55
2022-11-27T05:10:30.604Z,0.55
2022-11-27T05:13:03.217Z,1.33
2022-11-27T05:15:32.960Z,0.20
2022-11-27T05:18:04.707Z,0.30
2022-11-27T05:20:34.490Z,0.45
2022-11-27T05:23:05.119Z,0.30
2022-11-27T05:25:34.385Z,0.40
2022-11-27T05:28:03.818Z,0.40
2022-11-27T05:30:33.165Z,0.40
2022-11-27T05:33:02.633Z,0.20
2022-11-27T05:35:32.226Z,0.60
2022-11-27T05:38:01.428Z,0.63
2022-11-27T05:40:32.104Z,0.63
2022-11-27T05:43:01.225Z,0.45
2022-11-27T05:45:30.245Z,0.45
2022-11-27T05:47:59.325Z,0.40
2022-11-27T05:50:34.218Z,0.40
2022-11-27T05:53:04.264Z,0.38
2022-11-27T05:55:34.900Z,0.65
2022-11-27T05:58:04.903Z,0.30
2022-11-27T06:00:34.328Z,1.02
2022-11-27T06:03:08.493Z,0.30
2022-11-27T06:05:41.026Z,0.38
2022-11-27T06:08:11.337Z,0.30
2022-11-27T06:10:42.909Z,0.20
2022-11-27T06:13:12.844Z,0.20
2022-11-27T06:15:41.747Z,0.50
2022-11-27T06:18:12.201Z,0.30
2022-11-27T06:20:44.716Z,0.28
2022-11-27T06:23:15.352Z,0.95
2022-11-27T06:25:51.149Z,0.30
2022-11-27T06:28:22.694Z,0.20
2022-11-27T06:30:51.931Z,0.30
2022-11-27T06:33:21.250Z,0.30
2022-11-27T06:35:50.934Z,0.77
2022-11-27T06:38:20.716Z,0.28
2022-11-27T06:40:51.412Z,0.30
2022-11-27T06:43:20.500Z,0.38
2022-11-27T06:45:56.938Z,0.40
2022-11-27T06:48:26.179Z,0.45
2022-11-27T06:50:55.124Z,0.50
2022-11-27T06:53:24.158Z,0.28
2022-11-27T06:55:54.810Z,0.30
2022-11-27T06:58:29.357Z,0.20
2022-11-27T07:01:00.878Z,0.30
2022-11-27T07:03:30.271Z,0.30
2022-11-27T07:06:01.582Z,0.30
2022-11-27T07:08:30.924Z,0.35
2022-11-27T07:11:04.857Z,0.30
2022-11-27T07:13:36.203Z,0.45
2022-11-27T07:16:06.557Z,0.40
2022-11-27T07:18:37.308Z,0.30
2022-11-27T07:21:06.796Z,0.40
2022-11-27T07:23:36.314Z,0.50
2022-11-27T07:26:09.005Z,0.32
2022-11-27T07:28:38.322Z,0.40
2022-11-27T07:31:07.977Z,0.38
2022-11-27T07:33:37.301Z,0.60
2022-11-27T07:36:07.378Z,0.40
2022-11-27T07:38:37.096Z,0.30
2022-11-27T07:41:06.962Z,0.40
2022-11-27T07:43:37.775Z,0.30
2022-11-27T07:46:09.261Z,0.40
2022-11-27T07:48:39.411Z,0.30
2022-11-27T07:51:09.175Z,0.30
2022-11-27T07:53:38.838Z,0.35
2022-11-27T07:56:08.623Z,0.60
2022-11-27T07:58:39.532Z,0.40
2022-11-27T08:01:12.149Z,0.50
2022-11-27T08:03:44.211Z,0.50
2022-11-27T08:06:17.303Z,0.70
2022-11-27T08:08:49.343Z,0.63
2022-11-27T08:11:19.760Z,0.60
2022-11-27T08:13:51.008Z,0.50
2022-11-27T08:16:20.376Z,0.40
2022-11-27T08:18:49.575Z,0.60
2022-11-27T08:21:18.713Z,0.70
2022-11-27T08:23:48.009Z,0.50
2022-11-27T08:26:17.448Z,0.90
2022-11-27T08:28:47.558Z,0.60
2022-11-27T08:31:18.556Z,0.80
2022-11-27T08:33:52.732Z,0.88
2022-11-27T08:36:22.721Z,1.00
2022-11-27T08:38:52.097Z,0.70
2022-11-27T08:41:21.273Z,0.75
2022-11-27T08:43:50.391Z,0.82
2022-11-27T08:46:21.219Z,0.70
2022-11-27T08:48:50.675Z,0.70
2022-11-27T08:51:20.023Z,0.70
2022-11-27T08:53:52.212Z,0.93
2022-11-27T08:56:23.253Z,1.10
2022-11-27T08:58:53.286Z,0.93
2022-11-27T09:01:27.430Z,0.95
2022-11-27T09:03:58.096Z,0.80
2022-11-27T09:06:31.450Z,0.80
2022-11-27T09:09:01.447Z,1.10
2022-11-27T09:11:32.387Z,0.70
2022-11-27T09:14:02.132Z,1.50
2022-11-27T09:16:32.911Z,0.90
2022-11-27T09:19:03.015Z,0.97
2022-11-27T09:21:32.989Z,0.85
2022-11-27T09:24:08.393Z,0.65
2022-11-27T09:26:37.734Z,0.60
2022-11-27T09:29:07.143Z,1.00
2022-11-27T09:31:38.198Z,0.95
2022-11-27T09:34:09.621Z,0.40
2022-11-27T09:36:42.092Z,0.50
2022-11-27T09:39:11.493Z,0.50
2022-11-27T09:41:46.096Z,0.60
2022-11-27T09:44:20.004Z,0.40
2022-11-27T09:46:50.754Z,0.60
2022-11-27T09:49:21.727Z,0.50
2022-11-27T09:51:53.920Z,0.60
2022-11-27T09:54:26.437Z,0.60
2022-11-27T09:56:57.015Z,0.57
2022-11-27T09:59:29.913Z,0.57
2022-11-27T10:02:00.710Z,0.45
2022-11-27T10:04:44.892Z,0.65
2022-11-27T10:07:29.262Z,0.50
2022-11-27T10:10:07.255Z,0.80
2022-11-27T10:12:42.815Z,0.75
2022-11-27T10:15:16.272Z,0.73
2022-11-27T10:17:52.120Z,0.90
2022-11-27T10:20:28.703Z,1.00
2022-11-27T10:23:02.212Z,0.90
2022-11-27T10:25:35.670Z,0.90
2022-11-27T10:28:08.331Z,1.05
2022-11-27T10:30:41.156Z,0.77
2022-11-27T10:33:18.335Z,1.00
2022-11-27T10:35:49.407Z,1.17
2022-11-27T10:38:19.647Z,1.10
2022-11-27T10:40:51.770Z,1.08
2022-11-27T10:45:51.273Z,1.67
2022-11-27T10:48:22.510Z,0.88
2022-11-27T10:50:52.480Z,1.27
2022-11-27T10:53:26.780Z,1.83
2022-11-27T10:56:20.484Z,1.02
2022-11-27T10:58:52.991Z,1.30
2022-11-27T11:01:24.285Z,1.30
2022-11-27T11:04:24.369Z,1.20
2022-11-27T11:09:25.805Z,1.13
2022-11-27T11:11:54.886Z,1.13
2022-11-27T11:14:25.071Z,0.98
2022-11-27T11:16:56.920Z,1.02
2022-11-27T11:19:31.286Z,0.65
2022-11-27T11:22:00.987Z,0.70
2022-11-27T11:24:32.338Z,0.70
2022-11-27T11:27:02.144Z,0.88
2022-11-27T11:29:33.150Z,0.93
2022-11-27T11:32:07.074Z,1.88
2022-11-27T11:34:39.361Z,1.85
2022-11-27T11:37:11.059Z,0.80
2022-11-27T11:39:44.802Z,1.02
2022-11-27T11:42:21.919Z,1.23
2022-11-27T11:44:52.614Z,1.23
2022-11-27T11:47:29.901Z,1.20
2022-11-27T11:50:06.150Z,1.58
2022-11-27T11:52:43.492Z,1.50
2022-11-27T11:55:16.865Z,1.77
2022-11-27T11:58:13.031Z,1.20
2022-11-27T12:01:04.719Z,1.38
2022-11-27T12:03:38.825Z,1.50
2022-11-27T12:06:15.692Z,1.40
2022-11-27T12:08:53.098Z,1.20
2022-11-27T12:11:25.625Z,1.30
2022-11-27T12:14:02.596Z,1.80
2022-11-27T12:16:38.650Z,1.42
2022-11-27T12:19:22.217Z,1.63
2022-11-27T12:22:00.312Z,1.65
2022-11-27T12:24:44.968Z,1.80
2022-11-27T12:27:22.069Z,2.10
2022-11-27T12:30:04.618Z,1.38
2022-11-27T12:35:08.804Z,2.15
2022-11-27T12:37:47.104Z,2.50
2022-11-27T12:40:23.325Z,1.98
2022-11-27T12:42:56.976Z,1.52
2022-11-27T12:45:29.890Z,2.28
2022-11-27T12:48:02.909Z,1.30
2022-11-27T12:50:36.666Z,1.95
2022-11-27T12:53:11.848Z,1.92
2022-11-27T12:55:42.480Z,2.30
2022-11-27T12:58:18.062Z,2.15
2022-11-27T13:00:47.274Z,2.65
2022-11-27T13:03:20.478Z,2.65
2022-11-27T13:05:51.749Z,2.25
2022-11-27T13:08:24.466Z,1.77
2022-11-27T13:10:55.935Z,1.73
2022-11-27T13:13:28.348Z,2.22
2022-11-27T13:15:59.623Z,2.70
2022-11-27T13:18:36.142Z,2.78
2022-11-27T13:21:07.738Z,2.08
2022-11-27T13:23:38.200Z,3.92
2022-11-27T13:26:11.935Z,3.30
2022-11-27T13:28:45.727Z,3.30
2022-11-27T13:31:23.795Z,4.57
2022-11-27T13:34:00.447Z,5.07
2022-11-27T13:36:35.706Z,4.07
2022-11-27T13:39:07.134Z,3.15
2022-11-27T13:41:40.176Z,3.03
2022-11-27T13:44:24.219Z,2.90
2022-11-27T13:46:55.106Z,2.78
2022-11-27T13:49:26.851Z,1.90
2022-11-27T13:52:05.877Z,3.83
2022-11-27T13:54:36.486Z,2.33
2022-11-27T13:57:13.060Z,3.42
2022-11-27T13:59:44.034Z,2.60
2022-11-27T14:02:13.590Z,1.90
2022-11-27T14:04:54.456Z,2.67
2022-11-27T14:07:25.431Z,2.58
2022-11-27T14:09:57.949Z,3.97
2022-11-27T14:12:28.785Z,2.83
2022-11-27T14:15:02.542Z,3.05
2022-11-27T14:17:37.869Z,2.72
2022-11-27T14:20:20.790Z,2.00
2022-11-27T14:25:56.272Z,1.80
2022-11-27T14:28:26.449Z,2.13
2022-11-27T14:30:57.533Z,2.22
2022-11-27T14:33:27.564Z,2.67
2022-11-27T14:35:57.737Z,2.08
2022-11-27T14:38:28.142Z,2.72
2022-11-27T14:41:09.400Z,3.55
2022-11-27T14:43:38.777Z,3.72
2022-11-27T14:46:09.645Z,3.53
2022-11-27T14:48:44.459Z,3.45
2022-11-27T14:51:17.161Z,4.28
2022-11-27T14:53:47.054Z,2.83
2022-11-27T14:56:17.610Z,2.67
2022-11-27T14:58:50.741Z,2.65
2022-11-27T15:01:24.554Z,3.65
2022-11-27T15:03:59.918Z,5.40
2022-11-27T15:06:30.912Z,4.60
2022-11-27T15:09:29.691Z,4.35
2022-11-27T15:11:56.893Z,4.22
2022-11-27T15:14:26.893Z,4.57
2022-11-27T15:16:55.913Z,3.90
2022-11-27T15:19:28.072Z,4.25
2022-11-27T15:21:57.741Z,7.32
2022-11-27T15:24:33.956Z,9.60
2022-11-27T15:27:18.001Z,10.68
2022-11-27T15:30:00.935Z,8.90
2022-11-27T15:32:48.214Z,9.50
2022-11-27T15:35:19.663Z,8.10
2022-11-27T15:37:49.283Z,7.30
2022-11-27T15:40:25.126Z,5.75
2022-11-27T15:42:55.971Z,5.45
2022-11-27T15:45:25.023Z,4.47
2022-11-27T15:47:58.891Z,4.95
2022-11-27T15:50:28.084Z,3.95
2022-11-27T15:52:57.040Z,4.03
2022-11-27T15:55:27.496Z,3.25
2022-11-27T15:57:57.800Z,3.28
2022-11-27T16:00:26.990Z,3.58
2022-11-27T16:02:56.343Z,3.70
2022-11-27T16:05:25.355Z,4.68
2022-11-27T16:07:55.532Z,3.65
2022-11-27T16:10:26.303Z,3.67
2022-11-27T16:12:57.637Z,3.33
2022-11-27T16:15:32.730Z,4.37
2022-11-27T16:18:02.450Z,5.85
2022-11-27T16:20:31.587Z,5.03
2022-11-27T16:23:00.517Z,5.45
2022-11-27T16:25:29.571Z,4.90
2022-11-27T16:28:02.774Z,4.95
2022-11-27T16:30:34.155Z,4.63
2022-11-27T16:33:03.263Z,4.25
2022-11-27T16:35:32.767Z,3.78
2022-11-27T16:38:02.149Z,3.47
2022-11-27T16:40:34.775Z,3.28
2022-11-27T16:43:04.597Z,2.45
2022-11-27T16:45:37.899Z,2.45
2022-11-27T16:48:07.850Z,2.65
2022-11-27T16:50:40.723Z,2.75
2022-11-27T16:53:10.915Z,3.35
2022-11-27T16:55:41.112Z,2.50
2022-11-27T16:58:11.131Z,3.10
2022-11-27T17:00:42.167Z,3.17
2022-11-27T17:03:11.656Z,2.80
2022-11-27T17:05:40.976Z,2.22
2022-11-27T17:08:10.764Z,4.32
2022-11-27T17:10:40.806Z,2.70
2022-11-27T17:13:12.545Z,2.45
2022-11-27T17:15:45.202Z,3.15
2022-11-27T17:18:16.919Z,3.45
2022-11-27T17:20:46.207Z,2.90
2022-11-27T17:23:15.502Z,3.88
2022-11-27T17:25:45.026Z,4.22
2022-11-27T17:28:15.565Z,3.60
2022-11-27T17:30:46.545Z,2.75
2022-11-27T17:33:15.745Z,3.13
2022-11-27T17:35:45.644Z,2.75
2022-11-27T17:38:15.505Z,3.00
2022-11-27T17:40:45.081Z,2.40
2022-11-27T17:43:14.665Z,4.25
2022-11-27T17:45:44.250Z,3.05
2022-11-27T17:48:15.169Z,2.45
2022-11-27T17:50:44.743Z,8.40
2022-11-27T17:53:17.643Z,5.80
2022-11-27T17:55:47.602Z,4.63
2022-11-27T17:58:17.345Z,4.32
2022-11-27T18:00:46.796Z,5.15
2022-11-27T18:03:17.274Z,7.22
2022-11-27T18:05:47.142Z,6.10
2022-11-27T18:08:16.804Z,5.00
2022-11-27T18:10:46.147Z,4.93
2022-11-27T18:13:17.695Z,3.05
2022-11-27T18:15:47.772Z,3.80
2022-11-27T18:18:18.544Z,3.17
2022-11-27T18:20:48.618Z,3.08
2022-11-27T18:23:18.332Z,4.68
2022-11-27T18:25:49.144Z,4.35
2022-11-27T18:28:18.567Z,3.83
2022-11-27T18:30:47.920Z,4.40
2022-11-27T18:33:20.927Z,3.65
2022-11-27T18:35:55.248Z,3.58
2022-11-27T18:38:24.874Z,4.07
2022-11-27T18:40:54.031Z,3.95
2022-11-27T18:43:23.427Z,4.78
2022-11-27T18:45:53.883Z,4.38
2022-11-27T18:48:25.067Z,3.50
2022-11-27T18:50:55.263Z,5.03
2022-11-27T18:53:25.242Z,5.15
2022-11-27T18:55:54.386Z,4.80
2022-11-27T18:58:24.140Z,4.10
2022-11-27T19:00:58.591Z,3.90
2022-11-27T19:03:29.150Z,3.95
2022-11-27T19:05:59.462Z,4.05
2022-11-27T19:08:28.760Z,4.13
2022-11-27T19:11:03.726Z,3.58
2022-11-27T19:13:36.295Z,3.33
2022-11-27T19:16:07.198Z,2.83
2022-11-27T19:18:40.060Z,3.05
2022-11-27T19:21:10.302Z,3.15
2022-11-27T19:23:39.950Z,3.72
2022-11-27T19:26:11.386Z,3.00
2022-11-27T19:28:43.070Z,2.83
2022-11-27T19:31:13.380Z,4.25
2022-11-27T19:33:44.242Z,2.45
2022-11-27T19:36:14.766Z,3.13
2022-11-27T19:38:44.658Z,3.00
2022-11-27T19:41:14.518Z,3.25
2022-11-27T19:43:44.957Z,4.18
2022-11-27T19:46:16.429Z,3.55
2022-11-27T19:48:50.584Z,4.03
2022-11-27T19:51:19.980Z,4.50
2022-11-27T19:53:49.654Z,3.30
2022-11-27T19:56:19.798Z,3.28
2022-11-27T19:58:49.462Z,4.40
2022-11-27T20:01:20.490Z,5.28
2022-11-27T20:03:52.440Z,4.38
2022-11-27T20:06:22.806Z,3.73
2022-11-27T20:08:56.672Z,3.97
2022-11-27T20:11:32.661Z,4.78
2022-11-27T20:14:04.914Z,5.50
2022-11-27T20:16:35.734Z,5.35
2022-11-27T20:19:08.004Z,5.20
2022-11-27T20:21:39.439Z,5.10
2022-11-27T20:24:09.018Z,3.78
2022-11-27T20:26:42.598Z,4.03
2022-11-27T20:29:12.428Z,2.85
2022-11-27T20:31:43.835Z,3.83
2022-11-27T20:34:17.175Z,5.13
2022-11-27T20:36:48.876Z,4.45
2022-11-27T20:39:21.549Z,5.88
2022-11-27T20:41:53.467Z,4.88
2022-11-27T20:44:23.519Z,4.93
2022-11-27T20:46:52.830Z,4.03
2022-11-27T20:49:24.529Z,3.00
2022-11-27T20:51:55.378Z,4.65
2022-11-27T20:54:25.116Z,4.88
2022-11-27T20:56:54.186Z,3.83
2022-11-27T20:59:24.943Z,4.65
2022-11-27T21:01:54.316Z,3.15
2022-11-27T21:04:26.398Z,3.33
2022-11-27T21:06:56.045Z,3.72
2022-11-27T21:09:25.393Z,2.70
2022-11-27T21:11:54.478Z,3.30
2022-11-27T21:14:23.728Z,2.75
2022-11-27T21:16:54.403Z,2.95
2022-11-27T21:19:27.076Z,2.83
2022-11-27T21:21:58.275Z,2.55
2022-11-27T21:24:28.717Z,2.60
2022-11-27T21:26:58.021Z,3.17
2022-11-27T21:29:28.508Z,2.97
2022-11-27T21:31:58.218Z,3.25
2022-11-27T21:34:29.188Z,2.83
2022-11-27T21:36:58.409Z,2.97
2022-11-27T21:39:27.511Z,2.70
2022-11-27T21:41:57.088Z,1.98
2022-11-27T21:44:26.530Z,2.05
2022-11-27T21:46:55.720Z,2.30
2022-11-27T21:49:24.687Z,3.33
2022-11-27T21:51:57.890Z,2.50
2022-11-27T21:54:32.775Z,2.78
2022-11-27T21:57:01.814Z,2.90
2022-11-27T21:59:31.193Z,2.97
2022-11-27T22:02:00.703Z,2.20
2022-11-27T22:04:29.819Z,2.72
2022-11-27T22:07:00.260Z,2.60
2022-11-27T22:09:33.349Z,2.08
2022-11-27T22:12:02.436Z,3.67
2022-11-27T22:14:31.768Z,2.58
2022-11-27T22:17:00.808Z,3.55
2022-11-27T22:19:29.903Z,3.08
2022-11-27T22:22:00.557Z,3.10
2022-11-27T22:24:30.111Z,3.40
2022-11-27T22:26:59.477Z,3.33
2022-11-27T22:29:28.665Z,4.23
2022-11-27T22:31:58.041Z,3.97
2022-11-27T22:34:27.492Z,2.95
2022-11-27T22:36:57.353Z,3.28
2022-11-27T22:39:28.172Z,3.50
2022-11-27T22:41:57.203Z,3.90
2022-11-27T22:44:26.133Z,4.03
2022-11-27T22:46:55.722Z,4.07
2022-11-27T22:49:25.223Z,4.05
2022-11-27T22:51:54.222Z,5.57
2022-11-27T22:54:24.497Z,3.83
2022-11-27T22:56:55.249Z,4.57
2022-11-27T22:59:32.381Z,4.78
2022-11-27T23:02:03.145Z,4.78
2022-11-27T23:04:32.316Z,4.25
2022-11-27T23:07:01.684Z,5.47
2022-11-27T23:09:31.064Z,5.38
2022-11-27T23:12:01.419Z,4.72
2022-11-27T23:14:30.297Z,4.47
2022-11-27T23:17:01.186Z,5.10
2022-11-27T23:19:30.558Z,5.15
2022-11-27T23:22:00.511Z,5.68
2022-11-27T23:24:29.885Z,4.25
2022-11-27T23:26:58.944Z,5.78
2022-11-27T23:29:29.417Z,4.90
2022-11-27T23:31:58.487Z,4.43
2022-11-27T23:34:27.719Z,4.70
2022-11-27T23:36:56.760Z,5.30
2022-11-27T23:39:25.838Z,4.32
2022-11-27T23:41:54.918Z,5.18
2022-11-27T23:44:23.984Z,4.50
2022-11-27T23:46:54.274Z,4.85
2022-11-27T23:49:23.761Z,4.07
2022-11-27T23:51:52.741Z,4.70
2022-11-27T23:54:21.737Z,4.85
2022-11-27T23:56:52.482Z,6.28
2022-11-27T23:59:21.509Z,5.45
